Okara Weather



Okara's Current Weather

Temprature 26.126o clear sky

clear sky

Rain: 0 %

Min Temprature26.126o
Max Temprature26.126o
Humidity30
Wind Speed1.25 m/h
Sun Rise05:32:29
Sun Set18:37:10
Current Time: 21-Apr-2019 05:12:49
Lat/Lon: 30.81, 73.45




Okara's Geo Location



Okara's Weather Forecast

Time Overall Temp Min Temp Max Temp Humidity Wind Speed Rain
21-Apr-2019 (Sun)
08:00:00 clear sky 30.550 30.549 30.550 25 2.36 m/h 0 %
11:00:00 clear sky 36.250 36.250 36.250 17 2.16 m/h 0 %
14:00:00 clear sky 39.550 39.550 39.550 14 0.44 m/h 0 %
17:00:00 clear sky 38.150 38.150 38.150 13 2.25 m/h 0 %
20:00:00 clear sky 32.950 32.950 32.950 20 2.57 m/h 0 %
23:00:00 clear sky 30.400 30.400 30.400 24 2.53 m/h 0 %
22-Apr-2019 (Mon)
02:00:00 clear sky 28.570 28.570 28.570 29 2.74 m/h 0 %
05:00:00 clear sky 27.114 27.114 27.114 33 3.1 m/h 0 %
08:00:00 clear sky 31.796 31.796 31.796 27 3.05 m/h 0 %
11:00:00 clear sky 38.220 38.220 38.220 17 1.56 m/h 0 %
14:00:00 clear sky 41.115 41.115 41.115 13 1.26 m/h 0 %
17:00:00 clear sky 40.231 40.231 40.231 12 2.35 m/h 0 %
20:00:00 clear sky 34.750 34.750 34.750 18 2.67 m/h 0 %
23:00:00 clear sky 31.896 31.896 31.896 22 2.84 m/h 0 %
23-Apr-2019 (Tue)
02:00:00 clear sky 29.877 29.877 29.877 27 3.1 m/h 0 %
05:00:00 clear sky 28.296 28.296 28.296 29 3.12 m/h 0 %
08:00:00 broken clouds 32.947 32.947 32.947 22 2.64 m/h 0 %
11:00:00 broken clouds 39.250 39.250 39.250 15 2.43 m/h 0 %
14:00:00 clear sky 43.250 43.250 43.250 10 0.62 m/h 0 %
17:00:00 clear sky 42.050 42.050 42.050 10 2.15 m/h 0 %
20:00:00 clear sky 36.128 36.128 36.128 14 2.97 m/h 0 %
23:00:00 few clouds 33.450 33.450 33.450 17 3.45 m/h 0 %
24-Apr-2019 (Wed)
02:00:00 overcast clouds 31.682 31.682 31.682 20 3.15 m/h 0 %
05:00:00 overcast clouds 29.274 29.274 29.274 24 3.29 m/h 0 %
08:00:00 few clouds 34.950 34.950 34.950 16 3 m/h 0 %
11:00:00 clear sky 42.909 42.909 42.909 8 6.16 m/h 0 %
14:00:00 clear sky 44.150 44.150 44.150 7 7.58 m/h 0 %
17:00:00 clear sky 42.650 42.650 42.650 5 5.95 m/h 0 %
20:00:00 clear sky 34.555 34.555 34.555 15 3.5 m/h 0 %
23:00:00 few clouds 31.245 31.245 31.245 29 7.62 m/h 0 %
25-Apr-2019 (Thu)
02:00:00 broken clouds 30.550 30.550 30.550 29 7.66 m/h 0 %
05:00:00 broken clouds 29.922 29.922 29.922 28 2.69 m/h 0 %
08:00:00 overcast clouds 31.420 31.420 31.420 27 3.43 m/h 0 %
11:00:00 broken clouds 37.790 37.790 37.790 17 3.32 m/h 0 %
14:00:00 scattered clouds 40.250 40.250 40.250 14 3.41 m/h 0 %
17:00:00 few clouds 40.011 40.011 40.011 12 3.42 m/h 0 %
20:00:00 few clouds 34.325 34.325 34.325 15 3.65 m/h 0 %
23:00:00 clear sky 31.943 31.943 31.943 19 3.46 m/h 0 %
26-Apr-2019 (Fri)
02:00:00 clear sky 30.032 30.032 30.032 23 3.26 m/h 0 %
05:00:00 clear sky 28.286 28.286 28.286 22 3.18 m/h 0 %

Famous Cities (60)